Time;durP1;ratioP1;P1;durP2;ratioP2;P2;SDS_P1;SDS_P2;PMS_P1;PMS_P2;Temp;Humidity;BMP_temperature;BMP_pressure;BME280_temperature;BME280_humidity;BME280_pressure;Samples;Min_cycle;Max_cycle;Signal;HPM_P1;HPM_P2
2021/04/20 00:00:32;;;;;;;;;;;;;;;18.20;63.18;101011.59;4823423;29;816;-66
2021/04/20 00:02:59;;;;;;;;;;;;;;;18.21;63.10;101004.53;4821804;29;1265;-66
2021/04/20 00:05:25;;;;;;;;;;;;;;;18.19;63.32;100999.31;4823165;29;789;-66
2021/04/20 00:07:51;;;;;;;;;;;;;;;18.19;63.32;101001.09;4822806;29;1974;-66
2021/04/20 00:10:19;;;;;;;;;;;;;;;18.17;63.22;100998.56;4823159;29;1093;-65
2021/04/20 00:12:45;;;;;;;;;;;;;;;18.18;63.04;100999.41;4823043;29;1486;-65
2021/04/20 00:15:13;;;;;;;;;;;;;;;18.17;63.27;100988.00;4821933;29;1276;-65
2021/04/20 00:17:39;;;;;;;;;;;;;;;18.18;63.34;100991.50;4821299;29;1409;-66
2021/04/20 00:20:08;;;;;;;;;;;;;;;18.17;63.45;100989.78;4822689;29;1222;-65
2021/04/20 00:22:34;;;;;;;;;;;;;;;18.17;63.37;100987.16;4822829;29;1183;-66
2021/04/20 00:25:00;;;;;;;;;;;;;;;18.16;63.31;100994.19;4823296;29;1185;-66
2021/04/20 00:27:27;;;;;;;;;;;;;;;18.18;63.36;100994.13;4821344;29;1986;-65
2021/04/20 00:29:54;;;;;;;;;;;;;;;18.16;63.49;100994.19;4821557;29;1274;-64
2021/04/20 00:32:20;;;;;;;;;;;;;;;18.15;63.34;100989.84;4822650;29;1312;-66
2021/04/20 00:34:46;;;;;;;;;;;;;;;18.17;63.40;100995.06;4822596;29;1153;-64
2021/04/20 00:37:12;;;;;;;;;;;;;;;18.17;63.55;100995.06;4822765;29;1332;-65
2021/04/20 00:39:39;;;;;;;;;;;;;;;18.16;63.28;100982.78;4822814;29;1006;-66
2021/04/20 00:42:06;;;;;;;;;;;;;;;18.15;63.42;100981.94;4822396;29;1401;-66
2021/04/20 00:44:33;;;;;;;;;;;;;;;18.15;63.50;100975.84;4821235;29;1208;-66
2021/04/20 00:46:59;;;;;;;;;;;;;;;18.15;63.48;100975.84;4822106;29;1911;-65
2021/04/20 00:49:27;;;;;;;;;;;;;;;18.14;63.52;100968.84;4821041;29;1173;-66
2021/04/20 00:51:53;;;;;;;;;;;;;;;18.14;63.59;100972.34;4822470;29;1332;-66
2021/04/20 00:54:20;;;;;;;;;;;;;;;18.13;63.52;100970.63;4822188;29;1026;-66
2021/04/20 00:56:46;;;;;;;;;;;;;;;18.14;63.68;100974.13;4805836;29;1480;-66
2021/04/20 00:59:13;;;;;;;;;;;;;;;18.13;63.46;100964.50;4822875;29;1114;-66
2021/04/20 01:01:40;;;;;;;;;;;;;;;18.14;63.56;100958.31;4820526;29;1235;-66
2021/04/20 01:04:14;;;;;;;;;;;;;;;18.12;63.32;100963.63;4822102;29;1036;-66
2021/04/20 01:06:44;;;;;;;;;;;;;;;18.13;63.46;100956.59;4820445;29;1936;-66
2021/04/20 01:09:11;;;;;;;;;;;;;;;18.12;63.45;100947.00;4822214;29;1141;-65
2021/04/20 01:11:38;;;;;;;;;;;;;;;18.11;63.56;100953.19;4820381;29;1271;-66
2021/04/20 01:14:05;;;;;;;;;;;;;;;18.12;63.56;100952.25;4822291;29;1062;-67
2021/04/20 01:16:36;;;;;;;;;;;;;;;18.11;63.48;100953.19;4820489;29;1286;-66
2021/04/20 01:19:03;;;;;;;;;;;;;;;18.10;63.58;100947.06;4820556;29;1117;-67
2021/04/20 01:21:30;;;;;;;;;;;;;;;18.12;63.58;100954.91;4820142;29;1286;-67
2021/04/20 01:24:07;;;;;;;;;;;;;;;18.09;63.54;100940.06;4821898;29;1061;-66
2021/04/20 01:26:35;;;;;;;;;;;;;;;18.10;63.63;100947.06;4821441;29;1982;-65
2021/04/20 01:29:02;;;;;;;;;;;;;;;18.10;63.62;100940.94;4821630;29;1138;-66
2021/04/20 01:31:29;;;;;;;;;;;;;;;18.10;63.53;100933.00;4821736;29;1172;-66
2021/04/20 01:33:55;;;;;;;;;;;;;;;18.10;63.63;100935.66;4820304;29;1064;-65
2021/04/20 01:36:22;;;;;;;;;;;;;;;18.09;63.58;100939.25;4821208;29;1294;-66
2021/04/20 01:38:49;;;;;;;;;;;;;;;18.08;63.55;100927.84;4821448;29;1102;-66
2021/04/20 01:41:16;;;;;;;;;;;;;;;18.09;63.47;100933.97;4821331;29;1321;-66
2021/04/20 01:43:43;;;;;;;;;;;;;;;18.08;63.47;100929.63;4821655;29;1529;-65
2021/04/20 01:46:09;;;;;;;;;;;;;;;18.08;63.34;100926.97;4821127;29;1239;-65
2021/04/20 01:48:35;;;;;;;;;;;;;;;18.08;63.48;100926.97;4821346;29;1990;-65
2021/04/20 01:51:03;;;;;;;;;;;;;;;18.07;63.51;100928.75;4819893;29;1305;-64
2021/04/20 01:53:29;;;;;;;;;;;;;;;18.07;63.46;100926.13;4819559;29;1265;-65
2021/04/20 01:55:57;;;;;;;;;;;;;;;18.07;63.49;100930.53;4821142;29;1091;-65
2021/04/20 01:58:24;;;;;;;;;;;;;;;18.06;63.49;100916.50;4819491;29;1231;-65
2021/04/20 02:00:51;;;;;;;;;;;;;;;18.06;63.65;100916.50;4821193;29;796;-64
2021/04/20 02:03:17;;;;;;;;;;;;;;;18.06;63.57;100913.84;4821052;29;1224;-65
2021/04/20 02:05:43;;;;;;;;;;;;;;;18.06;63.62;100913.00;4821299;29;848;-66
2021/04/20 02:08:09;;;;;;;;;;;;;;;18.07;63.51;100909.44;4820741;29;1983;-65
2021/04/20 02:10:36;;;;;;;;;;;;;;;18.05;63.62;100909.53;4804481;29;1231;-67
2021/04/20 02:13:02;;;;;;;;;;;;;;;18.05;63.51;100909.53;4820869;29;1184;-66
2021/04/20 02:15:29;;;;;;;;;;;;;;;18.06;63.54;100907.72;4821057;29;808;-67
2021/04/20 02:17:56;;;;;;;;;;;;;;;18.04;63.62;100902.56;4819567;29;1390;-67
2021/04/20 02:20:23;;;;;;;;;;;;;;;18.04;63.90;100897.28;4821102;29;885;-67
2021/04/20 02:22:50;;;;;;;;;;;;;;;18.05;63.72;100898.13;4820625;29;1321;-67
2021/04/20 02:25:17;;;;;;;;;;;;;;;18.05;63.63;100892.88;4820638;29;836;-66
2021/04/20 02:27:45;;;;;;;;;;;;;;;18.04;63.52;100899.91;4820687;29;1986;-65
2021/04/20 02:30:12;;;;;;;;;;;;;;;18.05;63.38;100898.13;4820989;29;1310;-65
2021/04/20 02:32:39;;;;;;;;;;;;;;;18.03;63.63;100883.25;4819139;29;1332;-65
2021/04/20 02:35:07;;;;;;;;;;;;;;;18.03;63.71;100883.25;4819651;29;1208;-65
2021/04/20 02:37:37;;;;;;;;;;;;;;;18.05;63.64;100879.69;4818852;29;1424;-65
2021/04/20 02:40:05;;;;;;;;;;;;;;;18.03;63.79;100877.97;4818897;29;1465;-67
2021/04/20 02:42:33;;;;;;;;;;;;;;;18.02;63.63;100873.63;4820559;29;1389;-66
2021/04/20 02:45:03;;;;;;;;;;;;;;;18.02;63.71;100873.63;4821002;29;1175;-67
2021/04/20 02:47:29;;;;;;;;;;;;;;;18.02;63.81;100859.63;4818802;29;1931;-67
2021/04/20 02:50:17;;;;;;;;;;;;;;;18.02;63.68;100859.63;4820416;29;860;-67
2021/04/20 02:52:46;;;;;;;;;;;;;;;18.02;63.65;100859.63;4820332;29;1216;-67
2021/04/20 02:55:12;;;;;;;;;;;;;;;18.02;63.83;100857.81;4820806;29;1297;-67
2021/04/20 02:57:40;;;;;;;;;;;;;;;18.02;63.75;100854.34;4820366;29;1211;-65
2021/04/20 03:00:08;;;;;;;;;;;;;;;18.02;63.70;100849.91;4820588;29;1216;-66
2021/04/20 03:02:36;;;;;;;;;;;;;;;18.01;63.84;100856.13;4820355;29;1230;-66
2021/04/20 03:05:03;;;;;;;;;;;;;;;18.01;63.75;100847.34;4820630;29;1191;-66
2021/04/20 03:07:29;;;;;;;;;;;;;;;18.01;63.96;100840.31;4820206;29;1915;-66
2021/04/20 03:09:56;;;;;;;;;;;;;;;18.01;63.74;100836.81;4820586;29;913;-66
2021/04/20 03:12:22;;;;;;;;;;;;;;;18.01;63.70;100831.53;4820062;29;1261;-65
2021/04/20 03:14:49;;;;;;;;;;;;;;;18.00;63.64;100837.75;4822869;29;1163;-66
2021/04/20 03:17:18;;;;;;;;;;;;;;;18.00;63.57;100841.22;4820563;29;1339;-64
2021/04/20 03:19:44;;;;;;;;;;;;;;;18.00;63.71;100830.69;4805248;29;1817;-63
2021/04/20 03:22:12;;;;;;;;;;;;;;;18.00;63.84;100827.19;4822199;29;1239;-67
2021/04/20 03:24:38;;;;;;;;;;;;;;;17.99;63.77;100828.16;4821235;29;1150;-66
2021/04/20 03:27:05;;;;;;;;;;;;;;;17.99;63.78;100822.88;4820392;29;1986;-64
2021/04/20 03:29:31;;;;;;;;;;;;;;;17.98;63.79;100824.66;4820783;29;1177;-67
2021/04/20 03:31:58;;;;;;;;;;;;;;;17.99;63.79;100821.06;4820300;29;1215;-65
2021/04/20 03:34:44;;;;;;;;;;;;;;;17.97;63.72;100828.22;4803936;29;1633;-65
2021/04/20 03:37:17;;;;;;;;;;;;;;;17.97;63.85;100825.56;4818794;29;1441;-65
2021/04/20 03:39:47;;;;;;;;;;;;;;;17.97;63.77;100822.94;4820513;29;1067;-65
2021/04/20 03:42:20;;;;;;;;;;;;;;;17.97;63.89;100824.72;4819823;29;1654;-64
2021/04/20 03:44:46;;;;;;;;;;;;;;;17.97;63.82;100814.19;4820280;29;1140;-65
2021/04/20 03:47:21;;;;;;;;;;;;;;;17.95;63.86;100811.63;4819855;29;1970;-65
2021/04/20 03:49:49;;;;;;;;;;;;;;;17.96;63.63;100813.31;4820120;29;916;-65
2021/04/20 03:52:27;;;;;;;;;;;;;;;17.97;63.72;100811.53;4819708;29;1336;-66
2021/04/20 03:54:55;;;;;;;;;;;;;;;17.96;63.79;100809.84;4820193;29;1145;-66
2021/04/20 03:57:23;;;;;;;;;;;;;;;17.95;63.63;100811.63;4819829;29;1285;-67
2021/04/20 03:59:50;;;;;;;;;;;;;;;17.95;63.79;100816.91;4819584;29;1007;-66
2021/04/20 04:02:17;;;;;;;;;;;;;;;17.95;63.77;100816.91;4819563;29;1220;-66
2021/04/20 04:04:44;;;;;;;;;;;;;;;17.95;63.60;100816.06;4820044;29;1053;-66
2021/04/20 04:07:14;;;;;;;;;;;;;;;17.96;63.63;100817.75;4818033;29;1916;-65
2021/04/20 04:09:41;;;;;;;;;;;;;;;17.95;63.64;100814.28;4820050;29;1089;-65
2021/04/20 04:12:08;;;;;;;;;;;;;;;17.94;63.67;100814.34;4818240;29;1234;-66
2021/04/20 04:14:35;;;;;;;;;;;;;;;17.94;63.60;100823.09;4819510;29;1517;-66
2021/04/20 04:17:12;;;;;;;;;;;;;;;17.95;63.70;100829.22;4819658;29;1253;-66
2021/04/20 04:19:42;;;;;;;;;;;;;;;17.94;63.69;100828.38;4819634;29;1196;-64
2021/04/20 04:22:12;;;;;;;;;;;;;;;17.94;63.81;100833.63;4817653;29;1538;-66
2021/04/20 04:24:45;;;;;;;;;;;;;;;17.95;63.82;100832.72;4819781;29;1090;-64
2021/04/20 04:27:14;;;;;;;;;;;;;;;17.93;63.91;100834.56;4817826;29;1915;-65
2021/04/20 04:29:45;;;;;;;;;;;;;;;17.93;63.92;100829.28;4819656;29;1061;-64
2021/04/20 04:32:13;;;;;;;;;;;;;;;17.93;63.87;100821.38;4822440;29;1273;-65
2021/04/20 04:34:40;;;;;;;;;;;;;;;17.93;63.88;100834.56;4822613;29;1145;-66
2021/04/20 04:37:08;;;;;;;;;;;;;;;17.94;63.53;100832.78;4820983;29;1270;-66
2021/04/20 04:39:35;;;;;;;;;;;;;;;17.93;63.73;100834.56;4821040;29;1231;-66
2021/04/20 04:42:01;;;;;;;;;;;;;;;17.93;63.88;100823.19;4822171;29;1337;-65
2021/04/20 04:44:28;;;;;;;;;;;;;;;17.93;63.75;100817.94;4822793;29;1157;-65
2021/04/20 04:46:54;;;;;;;;;;;;;;;17.93;63.95;100817.94;4822343;29;1980;-67
2021/04/20 04:49:21;;;;;;;;;;;;;;;17.92;63.56;100817.06;4806147;29;1350;-65
2021/04/20 04:51:49;;;;;;;;;;;;;;;17.93;63.80;100823.19;4822053;29;1277;-64
2021/04/20 04:54:16;;;;;;;;;;;;;;;17.93;63.98;100820.56;4822558;29;1069;-65
2021/04/20 04:56:43;;;;;;;;;;;;;;;17.91;63.75;100823.25;4821909;29;1348;-65
2021/04/20 04:59:13;;;;;;;;;;;;;;;17.91;63.85;100822.41;4822177;29;1103;-64
2021/04/20 05:01:40;;;;;;;;;;;;;;;17.91;63.64;100823.25;4821951;29;1241;-64
2021/04/20 05:04:08;;;;;;;;;;;;;;;17.92;63.93;100829.38;4820565;29;1064;-64
2021/04/20 05:06:39;;;;;;;;;;;;;;;17.90;63.94;100829.44;4822009;29;1298;-64
2021/04/20 05:09:12;;;;;;;;;;;;;;;17.90;63.84;100832.09;4820810;29;1596;-66
2021/04/20 05:11:42;;;;;;;;;;;;;;;17.91;63.84;100831.16;4821843;29;1271;-65
2021/04/20 05:14:10;;;;;;;;;;;;;;;17.90;63.77;100829.44;4821640;29;1145;-65
2021/04/20 05:16:36;;;;;;;;;;;;;;;17.90;63.77;100826.00;4821803;29;1273;-64
2021/04/20 05:19:03;;;;;;;;;;;;;;;17.90;63.93;100829.44;4821270;29;1549;-64
2021/04/20 05:21:30;;;;;;;;;;;;;;;17.91;63.92;100835.59;4821063;29;1509;-64
2021/04/20 05:23:57;;;;;;;;;;;;;;;17.91;63.88;100836.44;4820463;29;1090;-66
2021/04/20 05:26:29;;;;;;;;;;;;;;;17.91;63.80;100839.06;4821726;29;1262;-67
2021/04/20 05:29:00;;;;;;;;;;;;;;;17.90;63.76;100839.16;4821984;29;1907;-66
2021/04/20 05:31:26;;;;;;;;;;;;;;;17.90;63.73;100837.34;4820352;29;1358;-66
2021/04/20 05:33:56;;;;;;;;;;;;;;;17.89;63.78;100838.31;4821812;29;1107;-68
2021/04/20 05:36:22;;;;;;;;;;;;;;;17.88;63.61;100836.59;4820215;29;1215;-68
2021/04/20 05:39:10;;;;;;;;;;;;;;;17.88;63.72;100841.88;4821669;29;1067;-67
2021/04/20 05:41:39;;;;;;;;;;;;;;;17.89;63.77;100838.31;4820954;29;1326;-65
2021/04/20 05:44:07;;;;;;;;;;;;;;;17.98;64.93;100847.53;4821618;29;1098;-64
2021/04/20 05:46:37;;;;;;;;;;;;;;;18.03;63.97;100838.44;4821605;29;1172;-66
2021/04/20 05:49:04;;;;;;;;;;;;;;;18.01;63.96;100842.09;4821270;29;1929;-66
2021/04/20 05:51:31;;;;;;;;;;;;;;;17.95;63.65;100843.25;4821187;29;1509;-63
2021/04/20 05:53:57;;;;;;;;;;;;;;;17.96;63.73;100846.75;4833309;29;1329;-66
2021/04/20 05:56:24;;;;;;;;;;;;;;;17.97;64.43;100846.66;4820450;29;1244;-66
2021/04/20 05:58:51;;;;;;;;;;;;;;;17.99;64.20;100850.06;4820655;29;1125;-67
2021/04/20 06:01:17;;;;;;;;;;;;;;;17.94;64.56;100835.41;4820669;29;1228;-63
2021/04/20 06:03:44;;;;;;;;;;;;;;;18.07;63.85;100844.41;4821242;29;1132;-65
2021/04/20 06:06:15;;;;;;;;;;;;;;;18.00;64.17;100846.50;4821262;29;1244;-66
2021/04/20 06:08:42;;;;;;;;;;;;;;;17.97;64.20;100841.38;4819148;29;1997;-65
2021/04/20 06:11:11;;;;;;;;;;;;;;;17.96;64.27;100839.69;4819394;29;1234;-67
2021/04/20 06:13:38;;;;;;;;;;;;;;;17.95;64.42;100837.13;4819550;29;1061;-66
2021/04/20 06:16:06;;;;;;;;;;;;;;;17.95;64.17;100838.00;4820805;29;1318;-65
2021/04/20 06:18:33;;;;;;;;;;;;;;;17.95;64.46;100840.63;4819304;29;1313;-66
2021/04/20 06:21:00;;;;;;;;;;;;;;;17.94;64.42;100838.91;4819229;29;1066;-66
2021/04/20 06:23:26;;;;;;;;;;;;;;;17.93;64.17;100839.84;4819162;29;1575;-67
2021/04/20 06:25:57;;;;;;;;;;;;;;;17.96;63.96;100834.41;4819463;29;1239;-67
2021/04/20 06:28:24;;;;;;;;;;;;;;;17.96;64.04;100839.69;4820504;29;1912;-68
2021/04/20 06:30:51;;;;;;;;;;;;;;;17.95;64.09;100842.41;4820709;29;783;-66
2021/04/20 06:33:18;;;;;;;;;;;;;;;17.93;64.10;100834.56;4820255;29;1312;-66
2021/04/20 06:35:44;;;;;;;;;;;;;;;18.01;64.26;100842.94;4803195;29;1378;-63
2021/04/20 06:38:11;;;;;;;;;;;;;;;17.99;64.00;100850.06;4820014;29;1294;-77
2021/04/20 06:40:45;;;;;;;;;;;;;;;18.03;64.21;100850.75;4820565;29;1139;-70
2021/04/20 06:43:13;;;;;;;;;;;;;;;18.05;64.00;100855.97;4820134;29;1615;-73
2021/04/20 06:46:01;;;;;;;;;;;;;;;18.00;63.76;100857.03;4818870;29;1152;-73
2021/04/20 06:48:36;;;;;;;;;;;;;;;17.95;64.18;100859.06;4820300;29;1928;-72
2021/04/20 06:51:21;;;;;;;;;;;;;;;17.96;64.04;100859.94;4820006;29;1344;-70
2021/04/20 06:53:54;;;;;;;;;;;;;;;17.99;63.96;100860.59;4818267;29;1613;-70
2021/04/20 06:56:33;;;;;;;;;;;;;;;18.06;64.14;100869.03;4820140;29;1322;-71
2021/04/20 06:59:22;;;;;;;;;;;;;;;18.00;63.94;100867.59;4822865;29;1045;-70
2021/04/20 07:01:54;;;;;;;;;;;;;;;18.02;64.44;100870.16;4818671;29;1321;-69
2021/04/20 07:04:29;;;;;;;;;;;;;;;18.05;64.01;100874.41;4820811;29;1096;-69
2021/04/20 07:07:01;;;;;;;;;;;;;;;18.01;63.71;100879.84;4803907;29;1932;-71
2021/04/20 07:09:30;;;;;;;;;;;;;;;18.00;63.69;100878.13;4820556;29;920;-68
2021/04/20 07:12:00;;;;;;;;;;;;;;;17.99;63.63;100881.69;4818592;29;1239;-68
2021/04/20 07:14:30;;;;;;;;;;;;;;;17.99;63.74;100881.69;4803548;29;1588;-70
2021/04/20 07:17:02;;;;;;;;;;;;;;;17.98;63.73;100880.00;4819827;29;1204;-69
2021/04/20 07:19:35;;;;;;;;;;;;;;;17.99;63.74;100884.31;4820324;29;1006;-72
2021/04/20 07:22:20;;;;;;;;;;;;;;;17.99;63.95;100889.59;4819930;29;1204;-68
2021/04/20 07:24:56;;;;;;;;;;;;;;;17.98;63.84;100885.28;4819853;29;1529;-67
2021/04/20 07:27:24;;;;;;;;;;;;;;;18.00;64.56;100893.94;4819280;29;1903;-71
2021/04/20 07:30:06;;;;;;;;;;;;;;;18.05;63.69;100893.72;4824393;29;2024;-72
2021/04/20 07:32:45;;;;;;;;;;;;;;;18.03;64.58;100883.25;4806082;29;1259;-73
2021/04/20 07:35:15;;;;;;;;;;;;;;;18.04;63.67;100884.09;4836787;29;1210;-72
2021/04/20 07:38:02;;;;;;;;;;;;;;;18.07;65.81;100883.94;4825901;29;1370;-71
2021/04/20 07:40:29;;;;;;;;;;;;;;;18.08;65.89;100877.75;4818535;29;794;-72
2021/04/20 07:43:08;;;;;;;;;;;;;;;18.08;67.62;100874.25;4815467;29;1643;-68
2021/04/20 07:45:53;;;;;;;;;;;;;;;18.06;68.44;100882.22;4805313;29;1201;-69
2021/04/20 07:48:20;;;;;;;;;;;;;;;18.05;67.59;100871.78;4810234;29;1984;-71
2021/04/20 07:50:51;;;;;;;;;;;;;;;18.07;67.48;100867.28;4818637;29;749;-72
2021/04/20 07:53:35;;;;;;;;;;;;;;;18.06;67.17;100871.69;4816931;29;1477;-69
2021/04/20 07:56:02;;;;;;;;;;;;;;;18.03;67.52;100862.16;4817268;29;1265;-72
2021/04/20 07:58:33;;;;;;;;;;;;;;;18.01;66.45;100860.53;4816971;29;1074;-73
2021/04/20 08:01:02;;;;;;;;;;;;;;;18.00;66.85;100861.47;4818250;29;816;-71
2021/04/20 08:03:49;;;;;;;;;;;;;;;17.99;66.23;100863.25;4828871;29;1298;-72
2021/04/20 08:06:16;;;;;;;;;;;;;;;18.00;66.59;100861.47;4840022;29;1727;-72
2021/04/20 08:08:51;;;;;;;;;;;;;;;17.99;65.94;100860.59;4839955;29;1904;-72
2021/04/20 08:11:20;;;;;;;;;;;;;;;17.97;65.64;100865.13;4838460;29;1329;-73
2021/04/20 08:13:52;;;;;;;;;;;;;;;17.99;65.88;100855.34;4840179;29;1220;-73
2021/04/20 08:16:29;;;;;;;;;;;;;;;17.97;65.74;100851.94;4840006;29;1226;-72
2021/04/20 08:18:57;;;;;;;;;;;;;;;17.97;65.29;100857.19;4838347;29;1402;-69
2021/04/20 08:21:24;;;;;;;;;;;;;;;17.96;65.29;100866.03;4839844;29;1215;-71
2021/04/20 08:23:51;;;;;;;;;;;;;;;17.96;65.12;100868.66;4840030;29;1238;-70
2021/04/20 08:26:30;;;;;;;;;;;;;;;18.02;65.76;100865.72;4838449;29;1227;-69
2021/04/20 08:28:58;;;;;;;;;;;;;;;18.01;64.98;100873.72;4823136;29;1982;-70
2021/04/20 08:31:30;;;;;;;;;;;;;;;17.99;65.10;100867.69;4840088;29;1179;-70
2021/04/20 08:34:00;;;;;;;;;;;;;;;17.96;64.79;100866.03;4823555;29;987;-69
2021/04/20 08:36:27;;;;;;;;;;;;;;;17.96;64.68;100871.31;4837459;29;1391;-71
2021/04/20 08:39:03;;;;;;;;;;;;;;;17.95;64.54;100869.63;4820063;29;1182;-69
2021/04/20 08:41:36;;;;;;;;;;;;;;;17.93;64.43;100879.38;4821252;29;1308;-69
2021/04/20 08:44:20;;;;;;;;;;;;;;;17.94;64.37;100883.72;4820797;29;1604;-70
2021/04/20 08:46:47;;;;;;;;;;;;;;;17.94;64.23;100882.88;4820346;29;1477;-69
2021/04/20 08:49:21;;;;;;;;;;;;;;;17.94;64.46;100882.88;4821149;29;1915;-70
2021/04/20 08:51:57;;;;;;;;;;;;;;;17.92;64.18;100885.59;4820576;29;1527;-70
2021/04/20 08:54:33;;;;;;;;;;;;;;;17.93;64.25;100882.00;4821116;29;1586;-67
2021/04/20 08:57:04;;;;;;;;;;;;;;;17.93;64.36;100874.09;4820832;29;1231;-69
2021/04/20 08:59:54;;;;;;;;;;;;;;;17.92;64.28;100882.94;4821177;29;1151;-70
2021/04/20 09:02:31;;;;;;;;;;;;;;;17.93;64.04;100882.00;4821088;29;1590;-70
2021/04/20 09:05:04;;;;;;;;;;;;;;;17.93;64.10;100881.19;4820649;29;1172;-70
2021/04/20 09:07:33;;;;;;;;;;;;;;;17.94;64.09;100886.34;4820947;29;1911;-69
2021/04/20 09:10:04;;;;;;;;;;;;;;;17.90;63.94;100882.16;4819372;29;1298;-71
2021/04/20 09:12:35;;;;;;;;;;;;;;;17.90;64.00;100887.44;4820749;29;1411;-70
2021/04/20 09:15:03;;;;;;;;;;;;;;;17.89;63.89;100880.47;4820142;29;1206;-70
2021/04/20 09:17:32;;;;;;;;;;;;;;;17.88;63.71;100889.31;4817999;29;1322;-69
2021/04/20 09:20:06;;;;;;;;;;;;;;;17.89;63.79;100885.75;4820334;29;1586;-71
2021/04/20 09:22:53;;;;;;;;;;;;;;;17.89;63.79;100887.53;4820435;29;1354;-71
2021/04/20 09:25:19;;;;;;;;;;;;;;;17.86;63.75;100885.03;4819013;29;1175;-71
2021/04/20 09:27:58;;;;;;;;;;;;;;;17.86;63.79;100888.53;4818947;29;1903;-71
2021/04/20 09:30:26;;;;;;;;;;;;;;;17.87;63.75;100889.41;4820717;29;1014;-72
2021/04/20 09:32:56;;;;;;;;;;;;;;;17.86;63.65;100888.53;4820821;29;1234;-74
2021/04/20 09:35:24;;;;;;;;;;;;;;;17.84;63.42;100882.47;4820777;29;939;-74
2021/04/20 09:37:53;;;;;;;;;;;;;;;17.84;63.63;100882.47;4832690;29;1238;-74
2021/04/20 09:40:21;;;;;;;;;;;;;;;17.86;63.63;100885.03;4822019;29;1142;-73
2021/04/20 09:43:09;;;;;;;;;;;;;;;17.87;63.70;100890.22;4838215;29;1230;-72
2021/04/20 09:45:42;;;;;;;;;;;;;;;17.86;63.51;100888.53;4838382;29;939;-74
2021/04/20 09:48:20;;;;;;;;;;;;;;;17.86;63.29;100895.59;4838299;29;1904;-71
2021/04/20 09:51:06;;;;;;;;;;;;;;;17.86;63.27;100893.81;4836823;29;797;-70
2021/04/20 09:53:45;;;;;;;;;;;;;;;17.85;63.18;100892.09;4838258;29;1570;-72
2021/04/20 09:56:34;;;;;;;;;;;;;;;17.85;63.42;100888.59;4820410;29;1227;-73
2021/04/20 09:59:10;;;;;;;;;;;;;;;17.85;63.35;100888.59;4819547;29;1179;-72
2021/04/20 10:01:54;;;;;;;;;;;;;;;17.86;63.13;100888.53;4820076;29;1212;-73
2021/04/20 10:04:33;;;;;;;;;;;;;;;17.83;63.08;100885.19;4820127;29;1132;-72
2021/04/20 10:07:19;;;;;;;;;;;;;;;17.83;63.23;100886.06;4819722;29;1320;-72
2021/04/20 10:10:04;;;;;;;;;;;;;;;17.84;63.28;100887.75;4819894;29;920;-70
2021/04/20 10:12:57;;;;;;;;;;;;;;;17.84;63.13;100893.00;4818081;29;1334;-75
2021/04/20 10:15:23;;;;;;;;;;;;;;;17.85;62.90;100893.88;4819672;29;1795;-74
2021/04/20 10:17:49;;;;;;;;;;;;;;;17.85;63.10;100885.97;4820002;29;1239;-75
2021/04/20 10:20:19;;;;;;;;;;;;;;;17.86;63.35;100885.91;4819707;29;1056;-73
2021/04/20 10:22:57;;;;;;;;;;;;;;;17.88;63.22;100884.03;4818493;29;1315;-76
2021/04/20 10:25:39;;;;;;;;;;;;;;;17.90;63.29;100884.78;4817873;29;1788;-74
2021/04/20 10:28:16;;;;;;;;;;;;;;;18.01;63.02;100894.81;4804184;29;1907;-73
2021/04/20 10:30:47;;;;;;;;;;;;;;;18.04;62.87;100878.84;4819773;29;1856;-75
2021/04/20 10:41:23;;;;;;;;;;;;;;;18.13;63.27;100872.22;4816474;29;1513;-69
2021/04/20 10:43:50;;;;;;;;;;;;;;;18.12;61.80;100875.81;4816918;29;1542;-67
2021/04/20 10:46:23;;;;;;;;;;;;;;;18.01;60.13;100866.66;4818141;29;1362;-70
2021/04/20 10:48:53;;;;;;;;;;;;;;;18.00;60.97;100869.38;4817214;29;1994;-72
2021/04/20 10:51:30;;;;;;;;;;;;;;;18.05;62.38;100863.88;4817836;29;1353;-69
2021/04/20 10:53:57;;;;;;;;;;;;;;;18.09;63.04;100871.53;4819431;29;1195;-68
2021/04/20 10:56:24;;;;;;;;;;;;;;;18.12;62.94;100860.81;4818443;29;1309;-70
2021/04/20 10:58:55;;;;;;;;;;;;;;;18.15;62.91;100860.66;4818042;29;1698;-69
2021/04/20 11:01:22;;;;;;;;;;;;;;;18.19;62.40;100862.22;4818190;29;1737;-70
2021/04/20 11:03:50;;;;;;;;;;;;;;;18.23;62.48;100860.28;4818346;29;1055;-65
2021/04/20 11:06:35;;;;;;;;;;;;;;;18.27;62.24;100853.91;4817871;29;1246;-68
2021/04/20 11:09:07;;;;;;;;;;;;;;;18.31;62.06;100856.28;4818549;29;1990;-70
2021/04/20 11:11:40;;;;;;;;;;;;;;;18.35;61.88;100852.56;4818550;29;1297;-70
2021/04/20 11:14:06;;;;;;;;;;;;;;;18.39;62.20;100855.91;4817241;29;1200;-71
2021/04/20 11:16:53;;;;;;;;;;;;;;;18.42;62.20;100847.81;4818039;29;1575;-70
2021/04/20 11:19:20;;;;;;;;;;;;;;;18.44;62.10;100846.78;4817990;29;852;-70
2021/04/20 11:21:47;;;;;;;;;;;;;;;18.46;62.08;100844.06;4817635;29;1322;-71
2021/04/20 11:24:21;;;;;;;;;;;;;;;18.47;62.06;100837.84;4818016;29;749;-71
2021/04/20 11:27:07;;;;;;;;;;;;;;;18.48;61.88;100836.94;4818126;29;1244;-69
2021/04/20 11:29:44;;;;;;;;;;;;;;;18.51;61.99;100836.81;4818098;29;1903;-69
2021/04/20 11:32:15;;;;;;;;;;;;;;;18.52;62.13;100843.75;4816464;29;1391;-70
2021/04/20 11:34:45;;;;;;;;;;;;;;;18.52;62.10;100836.69;4818196;29;1864;-70
2021/04/20 11:41:03;;;;;;;;;;;;;;;18.62;62.06;100836.19;4825519;29;638;-72
2021/04/20 11:43:31;;;;;;;;;;;;;;;18.67;61.95;100836.78;4821375;29;1326;-72
2021/04/20 11:46:01;;;;;;;;;;;;;;;18.63;62.24;100830.00;4822235;29;1419;-67
2021/04/20 11:48:33;;;;;;;;;;;;;;;18.63;62.43;100830.00;4823029;29;1919;-72
2021/04/20 11:51:01;;;;;;;;;;;;;;;18.63;62.45;100819.44;4829834;29;1003;-75
2021/04/20 11:53:36;;;;;;;;;;;;;;;18.64;62.14;100827.25;4833115;29;1330;-73
2021/04/20 11:56:06;;;;;;;;;;;;;;;18.63;62.39;100819.44;4827039;29;1339;-71
2021/04/20 11:58:36;;;;;;;;;;;;;;;18.65;62.31;100817.56;4838354;29;1114;-71
2021/04/20 12:01:14;;;;;;;;;;;;;;;18.66;62.46;100824.56;4822975;29;1342;-72
2021/04/20 12:03:47;;;;;;;;;;;;;;;18.65;62.49;100822.84;4840596;29;1201;-74
2021/04/20 12:06:13;;;;;;;;;;;;;;;18.67;62.46;100821.81;4836597;29;1372;-69
2021/04/20 12:08:42;;;;;;;;;;;;;;;18.71;62.46;100825.13;4838350;29;1935;-69
2021/04/20 12:11:10;;;;;;;;;;;;;;;18.73;62.63;100828.53;4824397;29;1411;-70
2021/04/20 12:13:39;;;;;;;;;;;;;;;18.70;62.36;100826.91;4829374;29;1186;-69
2021/04/20 12:16:09;;;;;;;;;;;;;;;18.76;62.55;100821.28;4835893;29;1385;-71
2021/04/20 12:18:38;;;;;;;;;;;;;;;18.76;62.68;100826.56;4807398;29;1381;-72
2021/04/20 12:21:17;;;;;;;;;;;;;;;18.77;62.86;100827.44;4832397;29;1273;-69
2021/04/20 12:23:48;;;;;;;;;;;;;;;18.79;62.96;100822.91;4834977;29;1127;-71
2021/04/20 12:26:16;;;;;;;;;;;;;;;18.87;63.77;100834.78;4825926;29;1342;-69
2021/04/20 12:28:49;;;;;;;;;;;;;;;18.80;63.41;100824.63;4834654;29;1939;-67
2021/04/20 12:31:16;;;;;;;;;;;;;;;18.76;63.94;100826.56;4825474;29;1235;-69
2021/04/20 12:33:49;;;;;;;;;;;;;;;18.76;64.06;100821.28;4829206;29;1166;-69
2021/04/20 12:36:29;;;;;;;;;;;;;;;18.74;64.30;100831.09;4805111;29;1591;-69
2021/04/20 12:38:59;;;;;;;;;;;;;;;18.74;65.06;100828.47;4823680;29;1419;-67
2021/04/20 12:41:28;;;;;;;;;;;;;;;18.75;65.21;100832.81;4830496;29;1258;-68
2021/04/20 12:43:56;;;;;;;;;;;;;;;18.74;64.93;100828.47;4830283;29;1371;-66
2021/04/20 12:46:24;;;;;;;;;;;;;;;18.77;65.96;100828.28;4823015;29;1346;-71
2021/04/20 12:48:53;;;;;;;;;;;;;;;18.87;65.95;100832.13;4831407;29;1919;-69
2021/04/20 12:51:20;;;;;;;;;;;;;;;18.80;65.09;100825.47;4825669;29;1629;-70
2021/04/20 12:53:48;;;;;;;;;;;;;;;18.85;65.19;100823.41;4822741;29;1924;-67
2021/04/20 12:56:29;;;;;;;;;;;;;;;18.84;66.02;100829.66;4839008;29;1162;-69
2021/04/20 12:58:56;;;;;;;;;;;;;;;18.85;64.86;100823.41;4832856;29;1334;-67
2021/04/20 13:01:23;;;;;;;;;;;;;;;18.83;65.25;100817.38;4820132;29;1326;-67
2021/04/20 13:03:52;;;;;;;;;;;;;;;18.87;65.53;100813.66;4820743;29;1057;-71
2021/04/20 13:06:19;;;;;;;;;;;;;;;18.87;65.06;100818.94;4820983;29;1383;-70
2021/04/20 13:08:47;;;;;;;;;;;;;;;18.87;65.34;100812.78;4839174;29;1947;-69
2021/04/20 13:11:38;;;;;;;;;;;;;;;18.92;64.56;100806.31;4824957;29;1618;-69
2021/04/20 13:14:07;;;;;;;;;;;;;;;18.91;65.03;100790.53;4823107;29;1125;-70
2021/04/20 13:16:35;;;;;;;;;;;;;;;18.88;64.79;100788.09;4822369;29;1329;-73